createdAt,value
2019-01-21T22:24:21.615Z,39.32
2019-01-21T22:26:47.465Z,39.20
2019-01-21T22:29:13.521Z,38.99
2019-01-21T22:31:39.650Z,38.86
2019-01-21T22:34:05.721Z,39.13
2019-01-21T22:36:31.704Z,38.86
2019-01-21T22:38:57.796Z,38.43
2019-01-21T22:41:23.835Z,38.26
2019-01-21T22:43:49.902Z,38.36
2019-01-21T22:46:16.024Z,38.23
2019-01-21T22:48:42.015Z,38.13
2019-01-21T22:51:08.081Z,38.20
2019-01-21T22:53:34.549Z,38.05
2019-01-21T22:56:00.543Z,37.96
2019-01-21T22:58:26.612Z,38.46
2019-01-21T23:00:52.648Z,38.52
2019-01-21T23:03:18.623Z,38.59
2019-01-21T23:05:44.627Z,38.61
2019-01-21T23:08:10.631Z,38.80
2019-01-21T23:10:36.905Z,39.09
2019-01-21T23:13:02.894Z,39.21
2019-01-21T23:15:28.968Z,39.27
2019-01-21T23:17:55.036Z,39.33
2019-01-21T23:20:20.999Z,39.36
2019-01-21T23:22:49.234Z,39.40
2019-01-21T23:25:14.887Z,39.50
2019-01-21T23:27:40.967Z,39.58
2019-01-21T23:30:07.035Z,39.62
2019-01-21T23:32:33.091Z,39.80
2019-01-21T23:34:59.075Z,39.75
2019-01-21T23:37:25.072Z,39.75
2019-01-21T23:39:51.059Z,39.81
2019-01-21T23:42:17.197Z,39.92
2019-01-21T23:44:43.650Z,40.04
2019-01-21T23:47:09.622Z,40.01
2019-01-21T23:49:35.809Z,40.10
2019-01-21T23:52:01.786Z,40.20
2019-01-21T23:54:27.976Z,40.26
2019-01-21T23:56:54.024Z,40.18
2019-01-21T23:59:20.001Z,40.35
